createdAt,value
2019-05-15T00:00:14.163Z,7.40
2019-05-15T00:02:41.209Z,7.34
2019-05-15T00:05:09.030Z,7.31
2019-05-15T00:07:39.097Z,7.36
2019-05-15T00:10:08.540Z,7.27
2019-05-15T00:12:34.932Z,7.19
2019-05-15T00:15:01.556Z,7.08
2019-05-15T00:17:28.634Z,6.96
2019-05-15T00:19:55.325Z,6.87
2019-05-15T00:22:21.988Z,6.82
2019-05-15T00:24:49.451Z,6.86
2019-05-15T00:27:16.186Z,6.99
2019-05-15T00:29:42.837Z,7.01
2019-05-15T00:32:09.499Z,6.96
2019-05-15T00:34:37.916Z,6.75
2019-05-15T00:37:04.619Z,6.64
2019-05-15T00:39:31.315Z,6.39
2019-05-15T00:41:59.323Z,6.29
2019-05-15T00:44:27.915Z,6.32
2019-05-15T00:46:54.493Z,6.57
2019-05-15T00:49:21.132Z,6.76
2019-05-15T00:51:48.706Z,6.84
2019-05-15T00:54:18.995Z,6.71
2019-05-15T00:56:45.274Z,6.65
2019-05-15T00:59:23.153Z,6.22
2019-05-15T01:01:40.648Z,6.17
2019-05-15T01:04:08.051Z,6.31
2019-05-15T01:06:34.966Z,6.27
2019-05-15T01:09:01.589Z,6.18
2019-05-15T01:11:28.685Z,6.22
2019-05-15T01:13:58.490Z,6.42
2019-05-15T01:16:28.132Z,6.47
2019-05-15T01:18:54.701Z,6.38
2019-05-15T01:21:21.373Z,6.31
2019-05-15T01:23:48.457Z,6.21
2019-05-15T01:26:15.236Z,6.27
2019-05-15T01:28:42.149Z,6.31
2019-05-15T01:31:08.859Z,5.93
2019-05-15T01:33:38.812Z,6.16
2019-05-15T01:36:05.259Z,6.12
2019-05-15T01:38:31.897Z,6.10
2019-05-15T01:40:59.163Z,6.08
2019-05-15T01:43:25.820Z,6.41
2019-05-15T01:45:52.438Z,6.53
2019-05-15T01:48:19.180Z,6.66
2019-05-15T01:50:45.863Z,6.71
2019-05-15T01:53:12.449Z,6.70
2019-05-15T01:55:39.699Z,6.41
2019-05-15T01:58:08.784Z,6.24
2019-05-15T02:00:35.070Z,6.39
2019-05-15T02:03:01.682Z,6.59
2019-05-15T02:05:29.353Z,6.60
2019-05-15T02:07:58.385Z,6.46
2019-05-15T02:10:24.539Z,6.46
2019-05-15T02:12:51.200Z,6.45
2019-05-15T02:15:19.017Z,6.42
2019-05-15T02:17:48.075Z,6.49
2019-05-15T02:20:14.379Z,6.49
2019-05-15T02:22:42.426Z,6.55
2019-05-15T02:25:09.459Z,6.54
2019-05-15T02:27:38.936Z,6.66
2019-05-15T02:30:17.918Z,6.52
2019-05-15T02:32:34.672Z,6.28
2019-05-15T02:35:01.290Z,6.42
2019-05-15T02:37:29.425Z,6.45
2019-05-15T02:39:58.941Z,6.55
2019-05-15T02:42:24.969Z,6.68
2019-05-15T02:44:52.502Z,6.59
2019-05-15T02:47:19.861Z,6.76
2019-05-15T02:49:48.695Z,6.84
2019-05-15T02:52:15.451Z,6.87
2019-05-15T02:54:42.431Z,6.87
2019-05-15T02:57:09.804Z,6.86
2019-05-15T02:59:39.603Z,6.81
2019-05-15T03:02:05.757Z,6.62
2019-05-15T03:04:32.355Z,6.32
2019-05-15T03:07:00.375Z,6.46
2019-05-15T03:09:29.807Z,6.64
2019-05-15T03:11:58.614Z,6.72
2019-05-15T03:14:29.127Z,6.53
2019-05-15T03:16:55.486Z,6.57
2019-05-15T03:19:22.109Z,6.48
2019-05-15T03:21:49.879Z,6.44
2019-05-15T03:24:19.443Z,6.51
2019-05-15T03:26:45.982Z,6.43
2019-05-15T03:29:12.638Z,6.64
2019-05-15T03:31:58.499Z,6.71
2019-05-15T03:34:20.862Z,6.67
2019-05-15T03:36:44.433Z,6.68
2019-05-15T03:39:09.528Z,6.77
2019-05-15T03:41:35.605Z,6.77
2019-05-15T03:44:04.028Z,6.73
2019-05-15T03:46:30.822Z,6.76
2019-05-15T03:49:00.075Z,6.64
2019-05-15T03:51:28.760Z,6.80
2019-05-15T03:53:54.588Z,6.46
2019-05-15T03:56:21.532Z,6.58
2019-05-15T03:58:49.344Z,6.56
2019-05-15T04:01:32.560Z,6.53
2019-05-15T04:03:44.938Z,6.56
2019-05-15T04:06:11.584Z,6.63
2019-05-15T04:08:39.125Z,6.61
2019-05-15T04:11:09.223Z,6.62
2019-05-15T04:13:35.091Z,6.58
2019-05-15T04:16:01.650Z,6.42
2019-05-15T04:18:29.161Z,6.45
2019-05-15T04:21:00.496Z,6.51
2019-05-15T04:23:30.156Z,6.54
2019-05-15T04:25:58.894Z,6.60
2019-05-15T04:28:29.356Z,6.51
2019-05-15T04:30:55.619Z,6.50
2019-05-15T04:33:24.454Z,6.53
2019-05-15T04:35:51.101Z,6.60
2019-05-15T04:38:19.566Z,6.61
2019-05-15T04:40:46.278Z,6.39
2019-05-15T04:43:12.892Z,6.32
2019-05-15T04:45:39.593Z,6.33
2019-05-15T04:48:09.534Z,6.48
2019-05-15T04:50:34.807Z,6.59
2019-05-15T04:53:01.478Z,6.64
2019-05-15T04:55:28.943Z,6.67
2019-05-15T04:57:58.997Z,6.73
2019-05-15T05:00:49.702Z,6.82
2019-05-15T05:03:19.823Z,6.87
2019-05-15T05:05:45.261Z,6.94
2019-05-15T05:08:11.980Z,6.90
2019-05-15T05:10:39.565Z,6.96
2019-05-15T05:13:08.678Z,7.01
2019-05-15T05:15:35.180Z,6.79
2019-05-15T05:18:01.969Z,6.90
2019-05-15T05:20:28.862Z,7.02
2019-05-15T05:22:55.608Z,6.97
2019-05-15T05:25:24.062Z,6.98
2019-05-15T05:27:50.668Z,6.99
2019-05-15T05:30:19.005Z,6.99
2019-05-15T05:32:48.609Z,6.98
2019-05-15T05:35:15.196Z,7.08
2019-05-15T05:37:41.963Z,7.16
2019-05-15T05:40:10.328Z,7.14
2019-05-15T05:42:39.106Z,7.16
2019-05-15T05:45:09.331Z,7.20
2019-05-15T05:47:35.415Z,7.11
2019-05-15T05:50:04.094Z,7.10
2019-05-15T05:52:30.717Z,7.04
2019-05-15T05:54:59.163Z,7.18
2019-05-15T05:57:27.881Z,7.09
2019-05-15T05:59:54.386Z,7.18
2019-05-15T06:02:21.023Z,7.17
2019-05-15T06:04:50.270Z,7.30
2019-05-15T06:07:18.662Z,7.25
2019-05-15T06:09:45.502Z,7.13
2019-05-15T06:12:12.114Z,7.10
2019-05-15T06:14:38.766Z,7.27
2019-05-15T06:17:05.427Z,7.38
2019-05-15T06:19:32.408Z,7.26
2019-05-15T06:22:01.265Z,7.13
2019-05-15T06:24:30.626Z,7.19
2019-05-15T06:26:58.569Z,7.28
2019-05-15T06:29:25.001Z,7.13
2019-05-15T06:31:51.657Z,7.12
2019-05-15T06:34:18.695Z,7.06
2019-05-15T06:36:45.412Z,7.16
2019-05-15T06:39:12.029Z,7.18
2019-05-15T06:41:39.163Z,6.88
2019-05-15T06:44:07.967Z,6.93
2019-05-15T06:46:39.067Z,6.99
2019-05-15T06:49:05.006Z,6.86
2019-05-15T06:51:31.603Z,6.92
2019-05-15T06:53:58.500Z,6.94
2019-05-15T06:56:25.126Z,7.06
2019-05-15T06:58:51.762Z,7.09
2019-05-15T07:01:19.040Z,7.23
2019-05-15T07:03:48.261Z,7.22
2019-05-15T07:06:14.499Z,7.29
2019-05-15T07:08:41.157Z,7.36
2019-05-15T07:11:08.728Z,7.32
2019-05-15T07:13:38.057Z,7.25
2019-05-15T07:16:07.881Z,7.20
2019-05-15T07:18:33.945Z,7.19
2019-05-15T07:21:00.562Z,6.79
2019-05-15T07:23:30.613Z,6.95
2019-05-15T07:25:58.561Z,7.16
2019-05-15T07:28:24.429Z,7.12
2019-05-15T07:30:51.086Z,7.09
2019-05-15T07:33:27.998Z,7.02
2019-05-15T07:35:49.423Z,7.04
2019-05-15T07:38:18.298Z,6.80
2019-05-15T07:40:45.125Z,6.78
2019-05-15T07:43:11.758Z,6.75
2019-05-15T07:45:43.809Z,6.83
2019-05-15T07:48:09.196Z,6.69
2019-05-15T07:50:38.442Z,6.57
2019-05-15T07:53:08.599Z,6.62
2019-05-15T07:55:34.593Z,6.67
2019-05-15T07:58:01.242Z,6.80
2019-05-15T08:00:28.955Z,6.75
2019-05-15T08:02:55.672Z,6.79
2019-05-15T08:05:22.384Z,6.72
2019-05-15T08:07:49.189Z,6.64
2019-05-15T08:10:18.286Z,6.84
2019-05-15T08:12:45.569Z,7.00
2019-05-15T08:15:14.028Z,7.06
2019-05-15T08:18:00.124Z,7.08
2019-05-15T08:20:14.407Z,7.11
2019-05-15T08:22:41.518Z,7.23
2019-05-15T08:25:13.075Z,7.26
2019-05-15T08:27:38.261Z,7.12
2019-05-15T08:30:08.957Z,7.09
2019-05-15T08:32:38.880Z,7.00
2019-05-15T08:35:08.341Z,6.91
2019-05-15T08:37:38.306Z,6.60
2019-05-15T08:40:05.290Z,6.52
2019-05-15T08:42:32.352Z,6.65
2019-05-15T08:44:59.347Z,6.76
2019-05-15T08:47:25.986Z,6.54
2019-05-15T08:49:52.588Z,6.68
2019-05-15T08:52:19.240Z,6.78
2019-05-15T08:54:48.631Z,6.68
2019-05-15T08:57:20.307Z,6.79
2019-05-15T08:59:48.881Z,6.97
2019-05-15T09:02:18.585Z,6.81
2019-05-15T09:04:45.055Z,6.97
2019-05-15T09:07:12.679Z,6.87
2019-05-15T09:09:40.017Z,6.81
2019-05-15T09:12:08.272Z,6.87
2019-05-15T09:14:35.337Z,6.90
2019-05-15T09:17:01.975Z,7.02
2019-05-15T09:19:28.584Z,7.16
2019-05-15T09:22:00.364Z,7.30
2019-05-15T09:24:29.394Z,7.41
2019-05-15T09:26:55.996Z,7.35
2019-05-15T09:29:23.717Z,7.24
2019-05-15T09:31:50.285Z,7.39
2019-05-15T09:34:18.609Z,7.48
2019-05-15T09:36:46.303Z,7.44
2019-05-15T09:39:14.210Z,7.38
2019-05-15T09:41:41.432Z,7.55
2019-05-15T09:44:08.875Z,7.47
2019-05-15T09:46:35.435Z,7.63
2019-05-15T09:49:02.013Z,7.59
2019-05-15T09:51:29.091Z,7.58
2019-05-15T09:53:55.779Z,7.45
2019-05-15T09:56:22.357Z,7.40
2019-05-15T09:58:49.234Z,7.39
2019-05-15T10:01:15.920Z,7.47
2019-05-15T10:03:44.572Z,7.53
2019-05-15T10:06:11.084Z,7.37
2019-05-15T10:08:39.802Z,7.49
2019-05-15T10:11:08.880Z,7.53
2019-05-15T10:13:38.251Z,7.72
2019-05-15T10:16:04.587Z,7.93
2019-05-15T10:18:31.151Z,7.64
2019-05-15T10:20:58.281Z,7.64
2019-05-15T10:23:29.234Z,7.50
2019-05-15T10:25:56.008Z,7.56
2019-05-15T10:28:22.687Z,7.80
2019-05-15T10:30:50.053Z,7.60
2019-05-15T10:33:19.707Z,7.59
2019-05-15T10:35:46.382Z,7.76
2019-05-15T10:38:13.845Z,7.87
2019-05-15T10:40:58.128Z,7.78
2019-05-15T10:43:09.333Z,7.85
2019-05-15T10:45:41.550Z,7.95
2019-05-15T10:48:04.741Z,8.07
2019-05-15T10:50:31.347Z,8.23
2019-05-15T10:52:57.940Z,8.52
2019-05-15T10:55:26.099Z,8.56
2019-05-15T10:57:53.928Z,8.37
2019-05-15T11:00:22.203Z,8.56
2019-05-15T11:02:49.081Z,8.72
2019-05-15T11:05:17.991Z,8.83
2019-05-15T11:07:44.821Z,8.83
2019-05-15T11:10:11.420Z,8.71
2019-05-15T11:12:38.057Z,8.75
2019-05-15T11:15:11.016Z,8.78
2019-05-15T11:17:34.847Z,8.54
2019-05-15T11:20:01.485Z,8.50
2019-05-15T11:22:29.843Z,8.38
2019-05-15T11:24:59.301Z,8.31
2019-05-15T11:27:25.093Z,8.40
2019-05-15T11:29:51.977Z,8.45
2019-05-15T11:32:18.560Z,8.49
2019-05-15T11:34:45.217Z,8.88
2019-05-15T11:37:12.115Z,9.05
2019-05-15T11:39:46.243Z,9.05
2019-05-15T11:42:08.970Z,9.06
2019-05-15T11:44:35.725Z,9.29
2019-05-15T11:47:02.716Z,9.31
2019-05-15T11:49:29.342Z,9.26
2019-05-15T11:52:00.419Z,9.19
2019-05-15T11:54:24.526Z,8.86
2019-05-15T11:56:51.172Z,8.83
2019-05-15T11:59:18.410Z,8.68
2019-05-15T12:01:45.658Z,8.80
2019-05-15T12:04:26.619Z,8.91
2019-05-15T12:06:40.780Z,8.94
2019-05-15T12:09:09.136Z,9.10
2019-05-15T12:11:39.969Z,9.23
2019-05-15T12:14:04.861Z,9.31
2019-05-15T12:16:31.482Z,9.35
2019-05-15T12:19:08.545Z,9.43
2019-05-15T12:21:28.589Z,9.50
2019-05-15T12:23:55.164Z,9.48
2019-05-15T12:26:21.816Z,9.51
2019-05-15T12:28:49.018Z,9.38
2019-05-15T12:31:15.890Z,9.17
2019-05-15T12:33:42.517Z,9.25
2019-05-15T12:36:10.776Z,9.22
2019-05-15T12:38:39.806Z,9.36
2019-05-15T13:00:54.495Z,9.94
2019-05-15T13:03:21.163Z,9.84
2019-05-15T13:05:48.553Z,9.71
2019-05-15T13:08:15.476Z,9.80
2019-05-15T13:10:42.107Z,9.75
2019-05-15T13:13:09.815Z,9.65
2019-05-15T13:15:41.097Z,9.39
2019-05-15T13:18:05.646Z,9.56
2019-05-15T13:20:32.229Z,9.63
2019-05-15T13:22:59.397Z,9.57
2019-05-15T13:25:28.035Z,9.52
2019-05-15T13:27:54.899Z,9.46
2019-05-15T13:30:22.105Z,9.47
2019-05-15T13:32:49.625Z,9.26
2019-05-15T13:35:18.413Z,9.32
2019-05-15T13:37:45.227Z,9.33
2019-05-15T13:40:13.913Z,9.38
2019-05-15T13:42:40.415Z,9.36
2019-05-15T13:45:13.245Z,9.08
2019-05-15T13:47:38.820Z,9.25
2019-05-15T13:50:07.933Z,9.39
2019-05-15T13:52:34.786Z,9.65
2019-05-15T13:55:03.274Z,9.87
2019-05-15T13:57:30.807Z,10.05
2019-05-15T13:59:58.920Z,10.05
2019-05-15T14:02:28.563Z,10.16
2019-05-15T14:04:55.154Z,10.19
2019-05-15T14:07:23.051Z,10.04
2019-05-15T14:09:49.718Z,10.04
2019-05-15T14:12:17.976Z,9.87
2019-05-15T14:14:45.984Z,9.87
2019-05-15T14:17:12.649Z,9.90
2019-05-15T14:19:39.246Z,9.91
2019-05-15T14:22:08.036Z,9.86
2019-05-15T14:24:34.809Z,10.05
2019-05-15T14:27:01.386Z,10.11
2019-05-15T14:29:29.136Z,10.32
2019-05-15T14:31:58.386Z,10.31
2019-05-15T14:34:29.064Z,10.40
2019-05-15T14:36:55.882Z,10.38
2019-05-15T14:39:22.488Z,10.40
2019-05-15T14:41:49.340Z,10.26
2019-05-15T14:44:20.710Z,10.28
2019-05-15T14:46:44.638Z,10.26
2019-05-15T14:49:11.284Z,10.30
2019-05-15T14:51:39.217Z,10.32
2019-05-15T14:54:09.112Z,10.34
2019-05-15T14:56:35.719Z,10.55
2019-05-15T14:59:03.425Z,10.73
2019-05-15T15:01:29.996Z,10.66
2019-05-15T15:03:58.102Z,10.66
2019-05-15T15:06:24.908Z,10.66
2019-05-15T15:08:51.742Z,10.77
2019-05-15T15:11:18.354Z,10.91
2019-05-15T15:13:45.020Z,10.98
2019-05-15T15:16:11.496Z,11.01
2019-05-15T15:18:38.746Z,10.86
2019-05-15T15:21:05.820Z,11.00
2019-05-15T15:23:32.439Z,10.99
2019-05-15T15:25:59.506Z,10.98
2019-05-15T15:28:26.139Z,11.01
2019-05-15T15:30:52.763Z,11.02
2019-05-15T15:33:19.716Z,11.08
2019-05-15T15:35:48.570Z,11.08
2019-05-15T15:38:27.095Z,11.15
2019-05-15T15:40:48.113Z,11.13
2019-05-15T15:43:14.922Z,11.14
2019-05-15T15:45:41.513Z,11.17
2019-05-15T15:48:08.551Z,11.01
2019-05-15T15:50:35.406Z,11.06
2019-05-15T15:53:02.030Z,11.10
2019-05-15T15:55:29.713Z,11.13
2019-05-15T15:57:59.125Z,11.01
2019-05-15T16:00:28.856Z,10.85
2019-05-15T16:02:57.037Z,10.93
2019-05-15T16:05:23.634Z,10.94
2019-05-15T16:07:50.229Z,10.86
2019-05-15T16:10:18.971Z,10.82
2019-05-15T16:12:50.449Z,10.83
2019-05-15T16:15:18.059Z,10.81
2019-05-15T16:17:48.607Z,10.72
2019-05-15T16:20:15.584Z,10.77
2019-05-15T16:22:43.172Z,10.78
2019-05-15T16:25:10.252Z,10.79
2019-05-15T16:27:38.274Z,10.82
2019-05-15T16:30:08.259Z,10.71
2019-05-15T16:32:34.702Z,10.75
2019-05-15T16:35:01.274Z,10.72
2019-05-15T16:37:28.115Z,10.77
2019-05-15T16:39:57.217Z,10.70
2019-05-15T16:42:23.249Z,10.58
2019-05-15T16:44:49.822Z,10.53
2019-05-15T16:47:18.445Z,10.50
2019-05-15T16:49:48.372Z,10.59
2019-05-15T16:52:14.537Z,10.64
2019-05-15T16:54:41.434Z,10.62
2019-05-15T16:57:09.899Z,10.67
2019-05-15T16:59:38.813Z,10.73
2019-05-15T17:02:05.298Z,10.60
2019-05-15T17:04:31.858Z,10.45
2019-05-15T17:06:58.669Z,10.34
2019-05-15T17:09:25.560Z,10.26
2019-05-15T17:11:52.141Z,10.30
2019-05-15T17:14:20.221Z,10.32
2019-05-15T17:16:48.120Z,10.29
2019-05-15T17:19:14.896Z,10.30
2019-05-15T17:21:41.558Z,10.36
2019-05-15T17:24:08.888Z,10.40
2019-05-15T17:26:35.676Z,10.37
2019-05-15T17:29:02.230Z,10.40
2019-05-15T17:31:28.819Z,10.34
2019-05-15T17:33:58.216Z,10.39
2019-05-15T17:36:25.163Z,10.40
2019-05-15T17:38:51.777Z,10.35
2019-05-15T17:41:18.399Z,10.32
2019-05-15T17:43:48.531Z,10.32
2019-05-15T17:46:15.410Z,10.22
2019-05-15T17:48:42.051Z,10.21
2019-05-15T17:51:09.206Z,10.22
2019-05-15T17:53:38.306Z,10.18
2019-05-15T17:56:04.884Z,10.19
2019-05-15T17:58:31.604Z,10.23
2019-05-15T18:00:59.424Z,10.27
2019-05-15T18:03:28.760Z,10.21
2019-05-15T18:05:55.275Z,10.20
2019-05-15T18:08:21.767Z,10.19
2019-05-15T18:10:49.046Z,10.20
2019-05-15T18:13:15.864Z,10.11
2019-05-15T18:15:42.494Z,10.18
2019-05-15T18:18:10.199Z,10.19
2019-05-15T18:20:38.521Z,10.11
2019-05-15T18:23:05.290Z,10.11
2019-05-15T18:25:31.923Z,10.13
2019-05-15T18:27:59.362Z,10.06
2019-05-15T18:30:28.143Z,10.09
2019-05-15T18:32:55.637Z,10.02
2019-05-15T18:35:22.243Z,10.08
2019-05-15T18:37:49.282Z,10.12
2019-05-15T18:40:16.077Z,10.08
2019-05-15T18:42:42.724Z,10.03
2019-05-15T18:45:09.695Z,10.05
2019-05-15T18:47:38.862Z,9.99
2019-05-15T18:50:12.613Z,9.98
2019-05-15T18:52:39.581Z,9.99
2019-05-15T18:55:08.013Z,9.89
2019-05-15T18:57:34.913Z,9.87
2019-05-15T19:00:01.572Z,9.77
2019-05-15T19:02:28.399Z,9.79
2019-05-15T19:04:55.072Z,9.81
2019-05-15T19:07:21.685Z,9.85
2019-05-15T19:09:49.680Z,9.83
2019-05-15T19:12:17.932Z,9.82
2019-05-15T19:14:44.693Z,9.85
2019-05-15T19:17:11.278Z,9.79
2019-05-15T19:19:39.127Z,9.82
2019-05-15T19:22:07.726Z,9.87
2019-05-15T19:24:34.320Z,9.84
2019-05-15T19:27:01.048Z,9.88
2019-05-15T19:29:28.554Z,9.83
2019-05-15T19:31:55.193Z,9.85
2019-05-15T19:34:22.837Z,9.82
2019-05-15T19:36:49.486Z,9.75
2019-05-15T19:39:18.968Z,9.75
2019-05-15T19:41:47.546Z,9.73
2019-05-15T19:44:17.839Z,9.84
2019-05-15T19:46:43.988Z,9.84
2019-05-15T19:49:11.094Z,9.80
2019-05-15T19:51:38.245Z,9.73
2019-05-15T19:54:05.040Z,9.68
2019-05-15T19:56:31.614Z,9.66
2019-05-15T19:58:58.830Z,9.64
2019-05-15T20:01:28.029Z,9.68
2019-05-15T20:03:53.957Z,9.65
2019-05-15T20:06:20.594Z,9.61
2019-05-15T20:08:50.136Z,9.61
2019-05-15T20:11:18.429Z,9.53
2019-05-15T20:13:45.299Z,9.57
2019-05-15T20:16:11.993Z,9.60
2019-05-15T20:18:38.975Z,9.62
2019-05-15T20:21:05.587Z,9.62
2019-05-15T20:23:32.191Z,9.60
2019-05-15T20:25:58.876Z,9.58
2019-05-15T20:28:28.650Z,9.56
2019-05-15T20:30:55.166Z,9.56
2019-05-15T20:33:22.827Z,9.54
2019-05-15T20:35:49.446Z,9.55
2019-05-15T20:38:15.915Z,9.54
2019-05-15T20:40:42.536Z,9.56
2019-05-15T20:43:09.251Z,9.52
2019-05-15T20:45:36.280Z,9.45
2019-05-15T20:48:02.990Z,9.52
2019-05-15T20:50:31.111Z,9.49
2019-05-15T20:52:58.904Z,9.44
2019-05-15T20:55:26.096Z,9.42
2019-05-15T20:57:52.795Z,9.37
2019-05-15T21:00:19.694Z,9.30
2019-05-15T21:02:48.368Z,9.38
2019-05-15T21:05:15.297Z,9.46
2019-05-15T21:07:43.285Z,9.44
2019-05-15T21:10:10.744Z,9.47
2019-05-15T21:12:40.535Z,9.48
2019-05-15T21:15:08.599Z,9.42
2019-05-15T21:17:35.621Z,9.42
2019-05-15T21:20:03.480Z,9.48
2019-05-15T21:22:30.103Z,9.38
2019-05-15T21:24:56.720Z,9.39
2019-05-15T21:27:25.065Z,9.40
2019-05-15T21:29:51.672Z,9.42
2019-05-15T21:32:19.597Z,9.41
2019-05-15T21:34:49.227Z,9.41
2019-05-15T21:37:15.068Z,9.32
2019-05-15T21:39:41.688Z,9.25
2019-05-15T21:42:08.864Z,9.27
2019-05-15T21:44:38.125Z,9.19
2019-05-15T21:47:04.452Z,9.32
2019-05-15T21:49:31.135Z,9.31
2019-05-15T21:51:58.395Z,9.32
2019-05-15T21:54:25.235Z,9.26
2019-05-15T21:57:05.608Z,9.18
2019-05-15T21:59:22.781Z,9.20
2019-05-15T22:01:49.467Z,9.25
2019-05-15T22:04:16.362Z,9.30
2019-05-15T22:06:43.022Z,9.33
2019-05-15T22:09:11.614Z,9.34
2019-05-15T22:11:39.551Z,9.30
2019-05-15T22:14:08.082Z,9.36
2019-05-15T22:16:35.417Z,9.34
2019-05-15T22:19:03.982Z,9.31
2019-05-15T22:21:31.006Z,9.29
2019-05-15T22:23:59.965Z,9.24
2019-05-15T22:26:28.477Z,9.26
2019-05-15T22:28:54.750Z,9.30
2019-05-15T22:31:21.444Z,9.26
2019-05-15T22:33:48.268Z,9.25
2019-05-15T22:36:14.883Z,9.25
2019-05-15T22:38:43.332Z,9.21
2019-05-15T22:41:10.581Z,9.20
2019-05-15T22:43:41.680Z,9.21
2019-05-15T22:46:10.970Z,9.21
2019-05-15T22:48:38.083Z,9.23
2019-05-15T22:51:05.188Z,9.23
2019-05-15T22:53:32.829Z,9.22
2019-05-15T22:55:59.463Z,9.26
2019-05-15T22:58:28.372Z,9.23
2019-05-15T23:00:55.319Z,9.12
2019-05-15T23:03:23.456Z,9.23
2019-05-15T23:05:50.084Z,9.26
2019-05-15T23:08:18.404Z,9.30
2019-05-15T23:10:45.273Z,9.31
2019-05-15T23:13:12.067Z,9.32
2019-05-15T23:15:39.747Z,9.31
2019-05-15T23:18:08.428Z,9.37
2019-05-15T23:20:35.077Z,9.32
2019-05-15T23:23:01.769Z,9.32
2019-05-15T23:25:31.109Z,9.29
2019-05-15T23:27:58.354Z,9.27
2019-05-15T23:30:25.244Z,9.29
2019-05-15T23:32:51.992Z,9.32
2019-05-15T23:35:18.624Z,9.31
2019-05-15T23:37:45.265Z,9.32
2019-05-15T23:40:12.401Z,9.31
2019-05-15T23:42:39.401Z,9.28
2019-05-15T23:45:08.621Z,9.29
2019-05-15T23:47:35.303Z,9.32
2019-05-15T23:50:02.766Z,9.33
2019-05-15T23:52:29.381Z,9.31
2019-05-15T23:54:56.092Z,9.30
2019-05-15T23:57:22.822Z,9.32
2019-05-15T23:59:49.441Z,9.24
